Time;durP1;ratioP1;P1;durP2;ratioP2;P2;SDS_P1;SDS_P2;PMS_P1;PMS_P2;Temp;Humidity;BMP_temperature;BMP_pressure;BME280_temperature;BME280_humidity;BME280_pressure;Samples;Min_cycle;Max_cycle;Signal;HPM_P1;HPM_P2
2022/03/31 00:02:10;;;;;;;2.80;0.50;;;1.60;99.90;;;;;;5091790;28;20113;-43
2022/03/31 00:04:37;;;;;;;6.82;0.82;;;1.70;99.90;;;;;;5091892;28;20064;-42
2022/03/31 00:07:04;;;;;;;2.72;0.60;;;1.70;99.90;;;;;;5091985;28;20338;-43
2022/03/31 00:09:30;;;;;;;3.45;0.50;;;1.70;99.90;;;;;;5073962;28;20044;-44
2022/03/31 00:11:58;;;;;;;2.72;0.65;;;1.70;99.90;;;;;;5074309;28;20085;-43
2022/03/31 00:14:24;;;;;;;2.72;0.90;;;1.80;99.90;;;;;;5092293;28;20048;-43
2022/03/31 00:16:53;;;;;;;4.70;0.95;;;1.80;99.90;;;;;;5092112;28;20526;-43
2022/03/31 00:19:19;;;;;;;5.18;0.85;;;1.80;99.90;;;;;;5091818;28;20106;-44
2022/03/31 00:21:44;;;;;;;4.85;1.25;;;1.80;99.90;;;;;;5092441;28;20044;-43
2022/03/31 00:24:10;;;;;;;9.18;1.35;;;1.90;99.90;;;;;;5092144;28;20515;-44
2022/03/31 00:26:36;;;;;;;5.78;0.90;;;1.90;99.90;;;;;;5092266;28;20473;-44
2022/03/31 00:29:02;;;;;;;2.97;0.45;;;1.90;99.90;;;;;;5073571;28;20056;-43
2022/03/31 00:31:27;;;;;;;8.45;1.98;;;1.90;99.90;;;;;;5091845;28;20482;-44
2022/03/31 00:33:53;;;;;;;2.03;0.60;;;2.00;99.90;;;;;;5091768;28;20044;-43
2022/03/31 00:36:19;;;;;;;4.60;0.88;;;2.00;99.90;;;;;;5091561;28;20112;-44
2022/03/31 00:39:28;;;;;;;6.05;0.88;;;2.00;99.90;;;;;;5090253;28;20141;-44
2022/03/31 00:41:35;;;;;;;2.95;0.40;;;2.00;99.90;;;;;;5091198;28;20079;-42
2022/03/31 00:44:01;;;;;;;4.03;0.70;;;2.00;99.90;;;;;;5073248;28;20052;-43
2022/03/31 00:46:27;;;;;;;4.90;0.75;;;2.10;99.90;;;;;;5091033;28;20101;-43
2022/03/31 00:48:52;;;;;;;7.15;1.25;;;2.10;99.90;;;;;;5091413;28;20067;-43
2022/03/31 00:51:18;;;;;;;6.88;1.10;;;2.10;99.90;;;;;;5091087;28;20043;-44
2022/03/31 00:53:44;;;;;;;5.43;0.77;;;2.10;99.90;;;;;;5090992;28;20046;-43
2022/03/31 00:56:10;;;;;;;7.80;1.13;;;2.10;99.90;;;;;;5072595;28;20082;-46
2022/03/31 00:58:36;;;;;;;4.63;0.70;;;2.10;99.90;;;;;;5091262;28;20044;-43
2022/03/31 01:01:02;;;;;;;5.82;0.80;;;2.10;99.90;;;;;;5091139;28;20497;-45
2022/03/31 01:03:28;;;;;;;6.03;1.00;;;2.10;99.90;;;;;;5090509;28;20092;-43
2022/03/31 01:05:55;;;;;;;8.88;1.25;;;2.10;99.90;;;;;;5090791;28;20810;-44
2022/03/31 01:08:21;;;;;;;2.95;1.45;;;2.10;99.90;;;;;;5090669;28;20048;-45
2022/03/31 01:10:50;;;;;;;9.90;1.58;;;2.20;99.90;;;;;;5090929;28;20094;-43
2022/03/31 01:13:15;;;;;;;7.60;1.60;;;2.10;99.90;;;;;;5090785;28;20047;-43
2022/03/31 01:15:41;;;;;;;8.68;1.52;;;2.10;99.90;;;;;;5090834;28;20104;-43
2022/03/31 01:18:07;;;;;;;7.15;2.20;;;2.60;99.90;;;;;;5090732;28;20462;-43
2022/03/31 01:20:33;;;;;;;4.88;1.73;;;2.10;99.90;;;;;;5090914;28;20585;-43
2022/03/31 01:23:00;;;;;;;7.53;2.05;;;2.20;99.90;;;;;;5090930;28;20036;-45
2022/03/31 01:25:27;;;;;;;5.97;2.05;;;2.20;99.90;;;;;;5090314;28;20486;-46
2022/03/31 01:27:52;;;;;;;9.02;2.38;;;2.10;99.90;;;;;;5072496;28;20043;-43
2022/03/31 01:30:22;;;;;;;7.10;2.78;;;2.20;99.90;;;;;;5090402;28;20089;-43
2022/03/31 01:32:48;;;;;;;7.47;3.45;;;2.10;99.90;;;;;;5090862;28;20053;-42
2022/03/31 01:35:14;;;;;;;10.93;2.75;;;2.00;99.90;;;;;;5090338;28;20386;-43
2022/03/31 01:37:40;;;;;;;6.88;2.90;;;2.10;99.90;;;;;;5090501;28;20036;-43
2022/03/31 01:40:07;;;;;;;6.95;3.08;;;2.20;99.90;;;;;;5089757;28;20428;-43
2022/03/31 01:42:34;;;;;;;7.55;2.78;;;2.20;99.90;;;;;;5071918;28;20048;-43
2022/03/31 01:45:00;;;;;;;7.35;3.00;;;2.20;99.90;;;;;;5090337;28;20051;-43
2022/03/31 01:47:26;;;;;;;9.75;4.28;;;2.20;99.90;;;;;;5089917;28;20081;-45
2022/03/31 01:49:52;;;;;;;10.60;4.47;;;2.20;99.90;;;;;;5089354;28;20123;-43
2022/03/31 01:52:18;;;;;;;9.45;4.63;;;2.10;99.90;;;;;;5089874;28;20070;-43
2022/03/31 01:54:44;;;;;;;8.85;4.45;;;2.20;99.90;;;;;;5089722;28;20043;-43
2022/03/31 01:57:10;;;;;;;11.63;4.45;;;2.10;99.90;;;;;;5089887;28;20044;-43
2022/03/31 01:59:37;;;;;;;9.02;4.40;;;2.00;99.90;;;;;;5089640;28;20093;-43
2022/03/31 02:02:04;;;;;;;9.35;5.07;;;2.10;99.90;;;;;;5090015;28;20052;-42
2022/03/31 02:04:30;;;;;;;9.38;4.82;;;2.10;99.90;;;;;;5089823;28;20076;-45
2022/03/31 02:06:56;;;;;;;11.02;4.55;;;2.00;99.90;;;;;;5090139;28;20063;-42
2022/03/31 02:09:22;;;;;;;12.88;4.60;;;2.00;99.90;;;;;;5071533;28;20619;-46
2022/03/31 02:11:48;;;;;;;13.57;5.25;;;2.00;99.90;;;;;;5090199;28;20047;-45
2022/03/31 02:14:14;;;;;;;14.57;5.03;;;2.00;99.90;;;;;;5089967;28;20409;-44
2022/03/31 02:16:40;;;;;;;11.60;5.95;;;2.00;99.90;;;;;;5090154;28;20047;-43
2022/03/31 02:19:06;;;;;;;10.70;5.20;;;2.00;99.90;;;;;;5089930;28;20040;-43
2022/03/31 02:21:32;;;;;;;8.98;5.53;;;2.00;99.90;;;;;;5089708;28;20046;-42
2022/03/31 02:23:58;;;;;;;11.43;6.57;;;2.00;99.90;;;;;;5089694;28;20047;-44
2022/03/31 02:26:24;;;;;;;12.40;7.45;;;2.00;99.90;;;;;;5089464;28;20036;-44
2022/03/31 02:28:50;;;;;;;13.23;8.43;;;2.00;99.90;;;;;;5089588;28;20135;-43
2022/03/31 02:31:16;;;;;;;17.83;8.45;;;2.00;99.90;;;;;;5089385;28;20162;-45
2022/03/31 02:33:42;;;;;;;12.80;8.45;;;2.10;99.90;;;;;;5089477;28;20398;-44
2022/03/31 02:36:08;;;;;;;13.70;8.25;;;2.10;99.90;;;;;;5089362;28;20032;-43
2022/03/31 02:38:34;;;;;;;15.50;9.23;;;2.10;99.90;;;;;;5088469;28;20566;-44
2022/03/31 02:41:02;;;;;;;14.23;9.55;;;3.50;99.90;;;;;;5089554;28;20061;-43
2022/03/31 02:43:27;;;;;;;16.67;11.52;;;2.10;99.90;;;;;;5089141;28;20047;-44
2022/03/31 02:45:53;;;;;;;18.20;10.30;;;2.10;99.90;;;;;;5089449;28;20126;-43
2022/03/31 02:48:18;;;;;;;24.50;12.40;;;2.10;99.90;;;;;;5089404;28;20071;-45
2022/03/31 02:50:44;;;;;;;22.35;11.95;;;3.60;99.90;;;;;;5089315;28;20051;-43
2022/03/31 02:55:55;;;;;;;19.08;11.93;;;2.20;99.90;;;;;;5089396;28;20055;-43
2022/03/31 02:58:21;;;;;;;22.65;11.55;;;2.20;99.90;;;;;;5089311;28;20040;-43
2022/03/31 03:00:48;;;;;;;22.15;12.38;;;2.20;99.90;;;;;;5089244;28;20493;-44
2022/03/31 03:03:14;;;;;;;22.73;14.05;;;2.20;99.90;;;;;;5095285;28;20087;-44
2022/03/31 03:05:42;;;;;;;23.85;14.00;;;2.20;99.90;;;;;;5095619;28;20128;-44
2022/03/31 03:08:08;;;;;;;23.70;14.60;;;2.80;99.90;;;;;;5095880;28;20044;-43
2022/03/31 03:10:34;;;;;;;24.15;14.60;;;2.30;99.90;;;;;;5095612;28;20048;-44
2022/03/31 03:13:00;;;;;;;22.45;14.25;;;2.30;99.90;;;;;;5096061;28;20046;-42
2022/03/31 03:15:26;;;;;;;24.55;13.35;;;2.50;99.90;;;;;;5095354;28;20516;-44
2022/03/31 03:17:51;;;;;;;22.67;15.02;;;2.20;99.90;;;;;;5077232;28;20059;-42
2022/03/31 03:20:18;;;;;;;24.15;14.40;;;2.30;99.90;;;;;;5095598;28;20123;-43
2022/03/31 03:22:49;;;;;;;29.92;15.05;;;2.20;99.90;;;;;;5095220;28;20051;-43
2022/03/31 03:25:18;;;;;;;25.58;16.35;;;2.20;99.90;;;;;;5095370;28;20040;-44
2022/03/31 03:27:45;;;;;;;22.02;14.52;;;2.20;99.90;;;;;;5095093;28;20062;-43
2022/03/31 03:30:11;;;;;;;27.48;16.02;;;2.20;99.90;;;;;;5095625;28;20055;-43
2022/03/31 03:32:38;;;;;;;28.27;16.13;;;2.20;99.90;;;;;;5095203;28;20502;-43
2022/03/31 03:35:08;;;;;;;28.63;16.90;;;2.20;99.90;;;;;;5095736;28;20499;-43
2022/03/31 03:37:36;;;;;;;30.23;16.27;;;2.20;99.90;;;;;;5095620;28;20048;-43
2022/03/31 03:40:03;;;;;;;31.55;16.73;;;2.20;99.90;;;;;;5095286;28;20040;-43
2022/03/31 03:42:29;;;;;;;30.77;16.85;;;2.20;99.90;;;;;;5095551;28;20028;-43
2022/03/31 03:44:55;;;;;;;30.15;15.15;;;2.20;99.90;;;;;;5095358;28;20043;-45
2022/03/31 03:47:21;;;;;;;31.23;17.67;;;2.20;99.90;;;;;;5095683;28;20041;-44
2022/03/31 03:49:48;;;;;;;34.72;16.05;;;2.20;99.90;;;;;;5095201;28;20040;-43
2022/03/31 03:52:13;;;;;;;18.63;11.75;;;2.20;99.90;;;;;;5095786;28;20119;-44
2022/03/31 03:54:40;;;;;;;19.00;11.00;;;2.20;99.90;;;;;;5095246;28;20469;-43
2022/03/31 03:57:06;;;;;;;20.88;11.20;;;2.30;99.90;;;;;;5095556;28;20486;-42
2022/03/31 03:59:32;;;;;;;18.35;10.90;;;2.20;99.90;;;;;;5095345;28;20036;-42
2022/03/31 04:01:59;;;;;;;16.85;9.95;;;2.20;99.90;;;;;;5095631;28;20392;-43
2022/03/31 04:04:26;;;;;;;19.90;10.57;;;2.20;99.90;;;;;;5095305;28;20127;-45
2022/03/31 04:06:51;;;;;;;18.05;10.00;;;2.20;99.90;;;;;;5095200;28;20044;-43
2022/03/31 04:09:17;;;;;;;18.85;11.15;;;2.20;99.90;;;;;;5095866;28;20050;-42
2022/03/31 04:11:43;;;;;;;21.02;11.57;;;2.10;99.90;;;;;;5095212;28;20482;-44
2022/03/31 04:14:08;;;;;;;22.55;10.63;;;2.20;99.90;;;;;;5092058;28;20565;-44
2022/03/31 04:16:34;;;;;;;18.58;10.68;;;2.10;99.90;;;;;;5091817;28;20505;-42
2022/03/31 04:19:00;;;;;;;24.45;10.25;;;2.10;99.90;;;;;;5092197;28;20123;-43
2022/03/31 04:21:26;;;;;;;20.80;11.43;;;2.20;99.90;;;;;;5092389;28;20090;-43
2022/03/31 04:23:52;;;;;;;19.40;10.50;;;2.10;99.90;;;;;;5091881;28;20032;-43
2022/03/31 04:26:17;;;;;;;23.20;11.60;;;2.20;99.90;;;;;;5091942;28;20385;-42
2022/03/31 04:28:43;;;;;;;26.23;12.45;;;2.60;99.90;;;;;;5091699;28;20485;-42
2022/03/31 04:31:08;;;;;;;24.05;12.10;;;2.10;99.90;;;;;;5091764;28;20085;-42
2022/03/31 04:33:34;;;;;;;29.33;12.90;;;2.10;99.90;;;;;;5091665;28;20139;-42
2022/03/31 04:36:00;;;;;;;22.92;11.20;;;2.10;99.90;;;;;;5091723;28;20043;-43
2022/03/31 04:38:25;;;;;;;27.52;13.13;;;2.10;99.90;;;;;;5091200;28;20502;-42
2022/03/31 04:40:51;;;;;;;25.05;12.23;;;2.10;99.90;;;;;;5091522;28;20097;-43
2022/03/31 04:43:17;;;;;;;29.17;13.75;;;2.10;99.90;;;;;;5091889;28;20028;-42
2022/03/31 04:45:42;;;;;;;25.67;12.30;;;2.10;99.90;;;;;;5091351;28;20036;-43
2022/03/31 04:48:08;;;;;;;37.30;14.27;;;2.10;99.90;;;;;;5091392;28;20122;-44
2022/03/31 04:50:34;;;;;;;29.38;13.65;;;2.10;99.90;;;;;;5091166;28;20055;-42
2022/03/31 04:53:00;;;;;;;26.27;13.38;;;2.10;99.90;;;;;;5090979;28;20124;-43
2022/03/31 04:55:25;;;;;;;27.05;14.23;;;2.10;99.90;;;;;;5091277;28;20076;-45
2022/03/31 04:57:52;;;;;;;26.38;13.63;;;2.20;99.90;;;;;;5090763;28;20048;-43
2022/03/31 05:00:18;;;;;;;27.33;13.68;;;2.20;99.90;;;;;;5091059;28;20040;-43
2022/03/31 05:02:44;;;;;;;23.48;13.75;;;2.20;99.90;;;;;;5090923;28;20093;-42
2022/03/31 05:05:09;;;;;;;26.92;14.00;;;2.00;99.90;;;;;;5090545;28;20052;-43
2022/03/31 05:07:35;;;;;;;23.60;13.93;;;2.10;99.90;;;;;;5090621;28;20071;-42
2022/03/31 05:10:01;;;;;;;29.58;14.25;;;2.10;99.90;;;;;;5090618;28;20040;-43
2022/03/31 05:12:27;;;;;;;32.45;15.27;;;2.00;99.90;;;;;;5090624;28;20071;-42
2022/03/31 05:14:52;;;;;;;30.05;14.93;;;2.00;99.90;;;;;;5090839;28;20075;-42
2022/03/31 05:17:18;;;;;;;27.67;14.25;;;2.00;99.90;;;;;;5090831;28;20848;-43
2022/03/31 05:19:44;;;;;;;25.67;14.57;;;2.00;99.90;;;;;;5090325;28;20394;-43
2022/03/31 05:22:10;;;;;;;29.88;16.05;;;2.00;99.90;;;;;;5090937;28;20040;-43
2022/03/31 05:24:35;;;;;;;30.33;15.05;;;2.00;99.90;;;;;;5090905;28;20036;-45
2022/03/31 05:27:02;;;;;;;26.15;15.25;;;1.90;99.90;;;;;;5090443;28;20039;-42
2022/03/31 05:29:27;;;;;;;28.17;15.77;;;2.00;99.90;;;;;;5090754;28;20127;-43
2022/03/31 05:31:55;;;;;;;31.48;15.68;;;2.00;99.90;;;;;;5090499;28;20127;-43
2022/03/31 05:34:21;;;;;;;27.08;15.70;;;2.00;99.90;;;;;;5089981;28;20520;-43
2022/03/31 05:36:47;;;;;;;30.63;16.38;;;2.00;99.90;;;;;;5089947;28;20093;-43
2022/03/31 05:39:13;;;;;;;27.58;15.82;;;1.80;99.90;;;;;;5089621;28;20056;-42
2022/03/31 05:41:39;;;;;;;29.48;16.15;;;1.90;99.90;;;;;;5090421;28;20413;-42
2022/03/31 05:44:05;;;;;;;25.08;15.50;;;2.50;99.90;;;;;;5072303;28;20044;-42
2022/03/31 05:46:31;;;;;;;28.15;16.63;;;2.00;99.90;;;;;;5090337;28;20490;-42
2022/03/31 05:48:57;;;;;;;28.52;15.85;;;1.90;99.90;;;;;;5090371;28;20044;-42
2022/03/31 05:51:23;;;;;;;26.10;14.73;;;2.00;99.90;;;;;;5090611;28;20083;-43
2022/03/31 05:53:48;;;;;;;22.02;14.30;;;2.00;99.90;;;;;;5090184;28;20513;-42
2022/03/31 05:56:14;;;;;;;21.75;12.90;;;2.00;99.90;;;;;;5090485;28;20039;-43
2022/03/31 05:58:40;;;;;;;18.77;12.30;;;2.00;99.90;;;;;;5090402;28;20043;-42
2022/03/31 06:01:05;;;;;;;19.45;12.65;;;2.00;99.90;;;;;;5089793;28;20036;-43
2022/03/31 06:03:31;;;;;;;19.25;12.82;;;1.90;99.90;;;;;;5090030;28;20444;-42
2022/03/31 06:05:57;;;;;;;20.27;13.45;;;1.90;99.90;;;;;;5089795;28;20036;-43
2022/03/31 06:08:23;;;;;;;21.55;13.23;;;1.90;99.90;;;;;;5089369;28;20054;-43
2022/03/31 06:10:49;;;;;;;21.70;13.75;;;1.90;99.90;;;;;;5089706;28;20047;-43
2022/03/31 06:13:15;;;;;;;19.25;12.77;;;1.90;99.90;;;;;;5090013;28;20044;-43
2022/03/31 06:15:40;;;;;;;21.05;13.07;;;1.80;99.90;;;;;;5090046;28;20036;-42
2022/03/31 06:18:07;;;;;;;22.15;13.07;;;1.90;99.90;;;;;;5089571;28;20098;-42
2022/03/31 06:20:34;;;;;;;21.80;13.60;;;1.90;99.90;;;;;;5071713;28;20036;-42
2022/03/31 06:23:01;;;;;;;22.90;13.80;;;2.00;99.90;;;;;;5089419;28;20074;-43
2022/03/31 06:25:27;;;;;;;21.80;13.57;;;1.90;99.90;;;;;;5071186;28;20506;-44
2022/03/31 06:27:52;;;;;;;22.80;13.73;;;1.90;99.90;;;;;;5089296;28;20075;-42
2022/03/31 06:30:18;;;;;;;25.08;14.15;;;1.90;99.90;;;;;;5071549;28;20036;-42
2022/03/31 06:32:44;;;;;;;28.35;15.93;;;2.00;99.90;;;;;;5089622;28;20176;-42
2022/03/31 06:35:14;;;;;;;31.40;16.38;;;2.00;99.90;;;;;;5089281;28;20047;-43
2022/03/31 06:37:46;;;;;;;28.55;15.88;;;2.00;99.90;;;;;;5088050;28;20146;-44
2022/03/31 06:40:14;;;;;;;31.42;15.82;;;2.00;99.90;;;;;;5089222;28;20067;-44
2022/03/31 06:42:41;;;;;;;27.45;16.58;;;2.10;99.90;;;;;;5089800;28;20039;-44
2022/03/31 06:45:12;;;;;;;29.35;16.75;;;2.10;99.90;;;;;;5089639;28;20044;-42
2022/03/31 06:47:42;;;;;;;31.27;17.80;;;2.10;99.90;;;;;;5089247;28;20088;-43
2022/03/31 06:50:09;;;;;;;31.08;16.75;;;2.10;99.90;;;;;;5089173;28;20115;-42
2022/03/31 06:52:35;;;;;;;29.35;17.98;;;2.20;99.90;;;;;;5088905;28;20036;-43
2022/03/31 06:55:01;;;;;;;29.42;18.25;;;2.10;99.90;;;;;;5088894;28;20112;-43
2022/03/31 06:57:26;;;;;;;30.13;17.63;;;2.10;99.90;;;;;;5087981;28;20490;-44
2022/03/31 06:59:52;;;;;;;31.75;17.92;;;2.10;99.90;;;;;;5088066;28;20051;-42
2022/03/31 07:02:18;;;;;;;30.73;18.63;;;2.10;99.90;;;;;;5088560;28;20040;-43
2022/03/31 07:04:44;;;;;;;31.88;18.63;;;2.00;99.90;;;;;;5087930;28;20075;-43
2022/03/31 07:07:09;;;;;;;37.05;19.80;;;2.10;99.90;;;;;;5088143;28;20096;-43
2022/03/31 07:09:35;;;;;;;31.52;19.33;;;1.90;99.90;;;;;;5089617;28;20044;-42
2022/03/31 07:12:01;;;;;;;35.17;20.20;;;2.10;99.90;;;;;;5088922;28;20402;-42
2022/03/31 07:14:27;;;;;;;37.10;20.90;;;3.00;99.90;;;;;;5088878;28;20185;-42
2022/03/31 07:16:52;;;;;;;31.63;19.88;;;2.60;99.90;;;;;;5088714;28;20048;-42
2022/03/31 07:19:18;;;;;;;33.88;21.02;;;2.20;99.90;;;;;;5088700;28;20156;-43
2022/03/31 07:21:44;;;;;;;32.15;20.15;;;2.20;99.90;;;;;;5088433;28;20063;-44
2022/03/31 07:24:09;;;;;;;33.05;18.80;;;2.20;99.90;;;;;;5088745;28;20039;-43
2022/03/31 07:26:35;;;;;;;34.35;18.85;;;2.30;99.90;;;;;;5088488;28;20140;-42
2022/03/31 07:29:03;;;;;;;29.70;18.42;;;2.30;99.90;;;;;;5088662;28;20040;-42
2022/03/31 07:31:29;;;;;;;35.15;19.33;;;2.30;99.90;;;;;;5088683;28;20563;-44
2022/03/31 07:33:56;;;;;;;29.55;18.10;;;2.30;99.90;;;;;;5088483;28;20075;-42
2022/03/31 07:36:22;;;;;;;30.77;18.80;;;2.40;99.90;;;;;;5070405;28;20704;-44
2022/03/31 07:38:48;;;;;;;29.83;17.30;;;2.40;99.90;;;;;;5088205;28;20044;-43
2022/03/31 07:41:16;;;;;;;28.10;17.80;;;2.40;99.90;;;;;;5088574;28;20055;-45
2022/03/31 07:43:43;;;;;;;25.88;17.17;;;2.30;99.90;;;;;;5088750;28;20059;-44
2022/03/31 07:46:10;;;;;;;24.95;16.15;;;2.40;99.90;;;;;;5088454;28;20109;-43
2022/03/31 07:48:36;;;;;;;24.95;16.75;;;2.40;99.90;;;;;;5089689;28;20129;-44
2022/03/31 07:51:01;;;;;;;23.08;15.88;;;2.40;99.90;;;;;;5092156;28;20105;-43
2022/03/31 07:53:32;;;;;;;22.77;15.30;;;2.40;99.90;;;;;;5092425;28;20047;-43
2022/03/31 07:55:59;;;;;;;23.67;15.73;;;2.50;99.90;;;;;;5091705;28;20054;-44
2022/03/31 07:58:24;;;;;;;26.30;15.95;;;2.30;99.90;;;;;;5091723;28;20040;-45
2022/03/31 08:00:52;;;;;;;24.48;15.80;;;2.40;99.90;;;;;;5092453;28;20442;-43
2022/03/31 08:03:18;;;;;;;22.20;14.75;;;2.40;99.90;;;;;;5092173;28;20040;-43
2022/03/31 08:05:45;;;;;;;22.77;13.80;;;2.40;99.90;;;;;;5092050;28;20401;-44
2022/03/31 08:08:12;;;;;;;22.33;13.40;;;2.40;99.90;;;;;;5091674;28;20046;-45
2022/03/31 08:10:37;;;;;;;22.45;14.77;;;2.40;99.90;;;;;;5091669;28;20044;-44
2022/03/31 08:13:04;;;;;;;24.88;14.60;;;2.20;99.90;;;;;;5091570;28;20097;-43
2022/03/31 08:15:30;;;;;;;25.33;13.73;;;2.40;99.90;;;;;;5073911;28;20044;-44
2022/03/31 08:17:55;;;;;;;21.02;12.43;;;2.30;99.90;;;;;;5091370;28;20047;-43
2022/03/31 08:20:21;;;;;;;19.30;12.80;;;2.30;99.90;;;;;;5091667;28;20044;-45
2022/03/31 08:22:47;;;;;;;21.23;12.20;;;2.30;99.90;;;;;;5091873;28;20120;-43
2022/03/31 08:25:14;;;;;;;20.77;11.98;;;2.30;99.90;;;;;;5091537;28;20121;-45
2022/03/31 08:27:40;;;;;;;15.30;9.90;;;2.30;99.90;;;;;;5091432;28;20489;-45
2022/03/31 08:30:13;;;;;;;15.93;9.80;;;2.50;99.90;;;;;;5091046;28;20036;-43
2022/03/31 08:32:42;;;;;;;13.90;8.38;;;2.20;99.90;;;;;;5090088;28;20036;-45
2022/03/31 08:35:09;;;;;;;14.55;8.73;;;2.20;99.90;;;;;;5068003;28;20058;-46
2022/03/31 08:37:49;;;;;;;13.48;7.18;;;2.10;99.90;;;;;;5087658;28;20067;-45
2022/03/31 08:40:15;;;;;;;11.65;7.60;;;2.10;99.90;;;;;;5090851;28;20047;-38
2022/03/31 08:42:42;;;;;;;14.05;8.18;;;2.10;99.90;;;;;;5090792;28;20366;-39
2022/03/31 08:45:12;;;;;;;10.02;6.53;;;2.10;99.90;;;;;;5090328;28;20650;-40
2022/03/31 08:47:39;;;;;;;11.90;7.10;;;2.00;99.90;;;;;;5091124;28;20046;-40
2022/03/31 08:50:07;;;;;;;10.65;7.38;;;2.00;99.90;;;;;;5090233;28;20080;-40
2022/03/31 08:52:33;;;;;;;13.68;7.50;;;2.00;99.90;;;;;;5090342;28;20164;-49
2022/03/31 08:54:58;;;;;;;12.55;7.20;;;2.00;99.90;;;;;;5091027;28;20071;-48
2022/03/31 08:57:25;;;;;;;11.75;7.28;;;2.00;99.90;;;;;;5091276;28;20085;-48
2022/03/31 08:59:51;;;;;;;12.07;7.55;;;2.00;99.90;;;;;;5089916;28;20052;-50
2022/03/31 09:02:26;;;;;;;12.32;7.30;;;3.20;99.90;;;;;;5091115;28;20036;-52
2022/03/31 09:05:10;;;;;;;10.40;6.50;;;3.10;99.90;;;;;;5090950;28;20063;-49
2022/03/31 09:07:52;;;;;;;;;;;1.90;99.90;;;;;;5091587;28;20043;-48
2022/03/31 09:10:51;;;;;;;8.90;5.20;;;1.90;99.90;;;;;;5091368;28;19999;-50
2022/03/31 09:13:30;;;;;;;10.27;6.45;;;1.90;99.90;;;;;;5091213;28;20036;-48
2022/03/31 09:16:01;;;;;;;8.38;5.38;;;1.90;99.90;;;;;;5091306;28;20119;-52
2022/03/31 09:18:29;;;;;;;8.95;6.13;;;1.80;99.90;;;;;;5090603;28;20047;-50
2022/03/31 09:20:58;;;;;;;7.88;5.05;;;1.90;99.90;;;;;;5090791;28;20123;-48
2022/03/31 09:23:35;;;;;;;9.27;6.07;;;1.80;99.90;;;;;;5090670;28;20075;-51
2022/03/31 09:26:03;;;;;;;9.98;6.55;;;1.80;99.90;;;;;;5090955;28;20044;-48
2022/03/31 09:28:30;;;;;;;10.20;7.05;;;1.90;99.90;;;;;;5090904;28;20051;-47
2022/03/31 09:30:56;;;;;;;10.05;6.95;;;1.80;99.90;;;;;;5091034;28;20076;-50
2022/03/31 09:33:38;;;;;;;10.95;6.93;;;1.80;99.90;;;;;;5090474;28;20087;-48
2022/03/31 09:36:08;;;;;;;10.80;6.70;;;1.80;99.90;;;;;;5072469;28;20056;-50
2022/03/31 09:38:36;;;;;;;9.95;6.43;;;1.70;99.90;;;;;;5071751;28;20059;-51
2022/03/31 09:41:17;;;;;;;9.32;6.35;;;1.70;99.90;;;;;;5090779;28;20115;-47
2022/03/31 09:43:44;;;;;;;11.32;7.13;;;1.70;99.90;;;;;;5090452;28;20102;-48
2022/03/31 09:46:30;;;;;;;12.43;8.00;;;1.50;99.90;;;;;;5090530;28;20059;-51
2022/03/31 09:48:57;;;;;;;11.65;7.68;;;1.60;99.90;;;;;;5090234;28;20039;-47
2022/03/31 09:51:25;;;;;;;12.63;7.15;;;1.40;99.90;;;;;;5090420;28;20370;-49
2022/03/31 09:53:53;;;;;;;12.60;7.80;;;1.50;99.90;;;;;;5090221;28;20623;-47
2022/03/31 09:56:21;;;;;;;11.55;7.60;;;1.30;99.90;;;;;;5071695;28;20048;-48
2022/03/31 09:58:47;;;;;;;12.15;7.72;;;1.20;99.90;;;;;;5071876;28;20044;-48
2022/03/31 10:01:15;;;;;;;13.38;7.50;;;1.10;99.90;;;;;;5090421;28;20043;-48
2022/03/31 10:03:41;;;;;;;13.85;8.05;;;1.10;99.90;;;;;;5090408;28;20036;-49
2022/03/31 10:06:08;;;;;;;12.05;7.57;;;1.00;99.90;;;;;;5090179;28;20108;-49
2022/03/31 10:08:40;;;;;;;11.93;7.13;;;0.90;99.90;;;;;;5089615;28;20046;-48
2022/03/31 10:11:07;;;;;;;12.50;7.28;;;0.70;99.90;;;;;;5089625;28;20051;-50
2022/03/31 10:13:54;;;;;;;12.82;7.47;;;0.70;99.90;;;;;;5089841;28;20113;-49
2022/03/31 10:16:31;;;;;;;14.68;7.85;;;0.70;99.90;;;;;;5090070;28;20070;-48
2022/03/31 10:18:56;;;;;;;13.90;7.80;;;0.70;99.90;;;;;;5089887;28;20044;-50
2022/03/31 10:21:32;;;;;;;13.40;7.15;;;0.70;99.90;;;;;;5089734;28;20050;-47
2022/03/31 10:26:43;;;;;;;13.55;8.32;;;0.60;99.90;;;;;;5089699;28;20051;-50
2022/03/31 10:29:16;;;;;;;13.40;7.75;;;0.50;99.90;;;;;;5089961;28;20036;-46
2022/03/31 10:31:46;;;;;;;14.18;7.82;;;0.60;99.90;;;;;;5089693;28;20105;-48
2022/03/31 10:34:17;;;;;;;14.70;7.72;;;0.40;99.90;;;;;;5089533;28;20036;-49
2022/03/31 10:36:47;;;;;;;17.58;8.23;;;0.40;99.90;;;;;;5089949;28;20051;-48
2022/03/31 10:39:24;;;;;;;15.32;8.13;;;0.40;99.90;;;;;;5089469;28;20051;-52
2022/03/31 10:42:05;;;;;;;15.00;8.95;;;0.40;99.90;;;;;;5090103;28;20039;-50
2022/03/31 10:44:31;;;;;;;15.93;8.48;;;0.40;99.90;;;;;;5089635;28;20028;-50
2022/03/31 10:47:03;;;;;;;17.05;9.18;;;0.40;99.90;;;;;;5089693;28;20055;-48
2022/03/31 10:49:30;;;;;;;14.05;8.80;;;0.40;99.90;;;;;;5089597;28;20050;-49
2022/03/31 10:51:56;;;;;;;16.73;8.23;;;0.30;99.90;;;;;;5089774;28;20048;-49
2022/03/31 10:54:28;;;;;;;14.93;8.15;;;0.30;99.90;;;;;;5089673;28;20139;-49
2022/03/31 10:57:09;;;;;;;15.47;8.10;;;0.50;99.90;;;;;;5089825;28;20043;-49
2022/03/31 10:59:36;;;;;;;15.65;8.38;;;0.30;99.90;;;;;;5070841;28;20478;-48
2022/03/31 11:02:10;;;;;;;14.45;8.82;;;0.30;99.90;;;;;;5089281;28;20680;-51
2022/03/31 11:04:55;;;;;;;17.23;9.48;;;1.80;99.90;;;;;;5089069;28;20067;-50
2022/03/31 11:07:25;;;;;;;16.10;9.02;;;0.30;99.90;;;;;;5089933;28;20119;-48
2022/03/31 11:10:03;;;;;;;20.80;9.55;;;0.40;99.90;;;;;;5090159;28;20478;-50
2022/03/31 11:12:29;;;;;;;15.98;9.15;;;0.20;99.90;;;;;;5089484;28;20719;-49
2022/03/31 11:15:00;;;;;;;19.15;9.57;;;0.40;99.90;;;;;;5089624;28;20062;-52
2022/03/31 11:17:31;;;;;;;21.08;9.52;;;0.40;99.90;;;;;;5089491;28;20043;-48
2022/03/31 11:19:57;;;;;;;20.10;10.45;;;0.40;99.90;;;;;;5089552;28;20412;-51
2022/03/31 11:22:26;;;;;;;21.08;10.38;;;0.30;99.90;;;;;;5090252;28;20136;-49
2022/03/31 11:24:54;;;;;;;19.15;10.07;;;0.30;99.90;;;;;;5075637;28;20062;-51
2022/03/31 11:27:38;;;;;;;17.23;9.43;;;0.30;99.90;;;;;;5093823;28;20055;-51
2022/03/31 11:30:06;;;;;;;16.23;10.05;;;0.30;99.90;;;;;;5093764;28;20051;-51
2022/03/31 11:32:32;;;;;;;17.85;9.05;;;0.40;99.90;;;;;;5093713;28;20055;-49
2022/03/31 11:34:58;;;;;;;20.80;10.65;;;0.40;99.90;;;;;;5093978;28;20085;-50
2022/03/31 11:37:24;;;;;;;16.73;9.90;;;0.30;99.90;;;;;;5093778;28;20035;-49
2022/03/31 11:39:50;;;;;;;17.90;10.48;;;0.50;99.90;;;;;;5093465;28;20040;-53
2022/03/31 11:42:16;;;;;;;18.40;11.00;;;0.40;99.90;;;;;;5093706;28;20059;-53
2022/03/31 11:44:42;;;;;;;18.73;9.88;;;0.40;99.90;;;;;;5093687;28;20036;-51
2022/03/31 11:47:12;;;;;;;18.63;11.18;;;0.50;99.90;;;;;;5093787;28;20059;-50
2022/03/31 11:49:39;;;;;;;21.17;11.48;;;0.50;99.90;;;;;;5093908;28;20040;-49
2022/03/31 11:52:06;;;;;;;20.40;11.75;;;0.50;99.90;;;;;;5093296;28;20040;-51
2022/03/31 11:54:38;;;;;;;18.58;11.45;;;0.50;99.90;;;;;;5093234;28;20470;-50
2022/03/31 11:57:12;;;;;;;22.98;13.10;;;0.50;99.90;;;;;;5093488;28;20046;-51
2022/03/31 11:59:38;;;;;;;20.00;12.32;;;0.70;99.90;;;;;;5093157;28;20044;-52
2022/03/31 12:02:14;;;;;;;25.75;13.13;;;0.50;99.90;;;;;;5092861;28;20051;-48
2022/03/31 12:04:43;;;;;;;23.33;12.98;;;1.60;99.90;;;;;;5092675;28;20055;-52
2022/03/31 12:07:09;;;;;;;23.92;14.25;;;0.70;99.90;;;;;;5092560;28;20521;-52
2022/03/31 12:09:38;;;;;;;23.98;14.77;;;1.90;99.90;;;;;;5092879;28;20079;-52
2022/03/31 12:12:06;;;;;;;26.83;14.88;;;0.70;99.90;;;;;;5093139;28;20044;-50
2022/03/31 12:14:34;;;;;;;24.75;15.10;;;0.80;99.90;;;;;;5092410;28;20490;-53
2022/03/31 12:16:59;;;;;;;26.98;15.57;;;0.70;99.90;;;;;;5092553;28;20043;-50
2022/03/31 12:19:36;;;;;;;26.45;15.05;;;0.80;99.90;;;;;;5092665;28;20716;-52
2022/03/31 12:22:01;;;;;;;31.63;17.25;;;0.80;99.90;;;;;;5092802;28;20036;-49
2022/03/31 12:24:27;;;;;;;30.02;17.80;;;0.80;99.90;;;;;;5092877;28;20040;-51
2022/03/31 12:27:02;;;;;;;34.97;20.92;;;0.90;99.90;;;;;;5092669;28;20039;-50
2022/03/31 12:29:31;;;;;;;36.53;21.30;;;0.90;99.90;;;;;;5093004;28;20039;-48
2022/03/31 12:32:10;;;;;;;37.15;22.10;;;1.00;99.90;;;;;;5092926;28;20039;-48
2022/03/31 12:35:00;;;;;;;48.85;25.48;;;1.10;99.90;;;;;;5091841;28;20181;-50
2022/03/31 12:37:31;;;;;;;42.45;23.88;;;1.10;99.90;;;;;;5091726;28;20063;-49
2022/03/31 12:39:58;;;;;;;44.55;23.60;;;1.30;99.90;;;;;;5091671;28;20088;-52
2022/03/31 12:42:24;;;;;;;42.42;25.17;;;1.30;99.90;;;;;;5092121;28;20043;-50
2022/03/31 12:44:51;;;;;;;38.53;24.08;;;1.40;99.90;;;;;;5073954;28;20402;-49
2022/03/31 12:47:22;;;;;;;38.70;24.77;;;1.50;99.90;;;;;;5092317;28;20072;-53
2022/03/31 12:49:48;;;;;;;36.05;22.15;;;1.60;99.90;;;;;;5091689;28;20039;-52
2022/03/31 12:52:16;;;;;;;41.53;25.58;;;1.70;99.90;;;;;;5092263;28;20040;-51